RJNF(METAR)
05/26 16:00
RJNF 260700Z 31008KT CAVOK 26/09 Q1006 RMK A2973=
戻る
トップページへ戻る
IMOC Co,.Ltd.